Time,TemperatureF,DewpointF,PressureIn,WindDirection,WindDirectionDegrees,WindSpeedMPH,WindSpeedGustMPH,Humidity,HourlyPrecipIn,Conditions,Clouds,dailyrainin,SoftwareType,DateUTC
2013-06-12 00:04:00,64.4,61.4,29.83,SW,225,0.0,-999.0,90,-99.99,,,0.00,Acu-Link.com,2013-06-12 04:04:00,
2013-06-12 00:19:00,64.2,61.2,29.83,SW,225,4.2,-999.0,90,-99.99,,,0.00,Acu-Link.com,2013-06-12 04:19:00,
2013-06-12 00:34:00,63.7,60.7,29.83,West,270,1.1,-999.0,90,-99.99,,,0.00,Acu-Link.com,2013-06-12 04:34:00,
2013-06-12 00:49:00,63.3,60.6,29.83,NNE,22,0.0,-999.0,91,-99.99,,,0.00,Acu-Link.com,2013-06-12 04:49:00,
2013-06-12 01:04:00,63.0,60.3,29.83,WNW,292,0.0,-999.0,91,-99.99,,,0.00,Acu-Link.com,2013-06-12 05:04:00,
2013-06-12 01:20:00,63.0,60.6,29.83,SSW,202,0.0,-999.0,92,-99.99,,,0.00,Acu-Link.com,2013-06-12 05:20:00,
2013-06-12 01:35:00,62.2,59.8,29.82,East,90,1.7,-999.0,92,-99.99,,,0.00,Acu-Link.com,2013-06-12 05:35:00,
2013-06-12 01:50:00,62.4,60.0,29.83,WSW,247,0.0,-999.0,92,-99.99,,,0.00,Acu-Link.com,2013-06-12 05:50:00,
2013-06-12 02:05:00,62.8,60.4,29.83,NNE,22,0.0,-999.0,92,-99.99,,,0.00,Acu-Link.com,2013-06-12 06:05:00,
2013-06-12 02:20:00,62.6,60.2,29.83,NW,315,3.2,-999.0,92,-99.99,,,0.00,Acu-Link.com,2013-06-12 06:20:00,
2013-06-12 02:35:00,63.1,60.4,29.82,NNW,337,3.2,-999.0,91,-99.99,,,0.00,Acu-Link.com,2013-06-12 06:35:00,
2013-06-12 02:50:00,63.3,60.3,29.83,NW,315,4.2,-999.0,90,-99.99,,,0.00,Acu-Link.com,2013-06-12 06:50:00,
2013-06-12 03:05:00,63.3,60.3,29.84,ENE,67,2.2,-999.0,90,-99.99,,,0.00,Acu-Link.com,2013-06-12 07:05:00,
2013-06-12 03:20:00,62.8,60.1,29.84,ESE,112,1.7,-999.0,91,-99.99,,,0.00,Acu-Link.com,2013-06-12 07:20:00,
2013-06-12 03:36:00,62.4,59.7,29.84,West,270,1.7,-999.0,91,-99.99,,,0.00,Acu-Link.com,2013-06-12 07:36:00,
2013-06-12 03:51:00,62.2,59.8,29.84,East,90,2.7,-999.0,92,-99.99,,,0.00,Acu-Link.com,2013-06-12 07:51:00,
2013-06-12 04:06:00,62.1,60.0,29.84,West,270,2.2,-999.0,93,-99.99,,,0.00,Acu-Link.com,2013-06-12 08:06:00,
2013-06-12 04:21:00,62.1,60.0,29.84,SSE,157,0.0,-999.0,93,-99.99,,,0.00,Acu-Link.com,2013-06-12 08:21:00,
2013-06-12 04:37:00,61.9,59.9,29.84,ESE,112,1.1,-999.0,93,-99.99,,,0.00,Acu-Link.com,2013-06-12 08:37:00,
2013-06-12 04:52:00,61.3,59.6,29.84,NNE,22,0.0,-999.0,94,-99.99,,,0.00,Acu-Link.com,2013-06-12 08:52:00,
2013-06-12 05:07:00,60.8,59.1,29.84,NW,315,1.1,-999.0,94,-99.99,,,0.00,Acu-Link.com,2013-06-12 09:07:00,
2013-06-12 05:22:00,60.3,58.9,29.84,ENE,67,0.0,-999.0,95,-99.99,,,0.00,Acu-Link.com,2013-06-12 09:22:00,
2013-06-12 05:37:00,60.1,58.7,29.84,West,270,1.7,-999.0,95,-99.99,,,0.00,Acu-Link.com,2013-06-12 09:37:00,
2013-06-12 05:52:00,60.3,58.9,29.84,WNW,292,2.7,-999.0,95,-99.99,,,0.00,Acu-Link.com,2013-06-12 09:52:00,
2013-06-12 06:07:00,60.3,59.2,29.84,ENE,67,1.1,-999.0,96,-99.99,,,0.00,Acu-Link.com,2013-06-12 10:07:00,
2013-06-12 06:22:00,60.6,59.5,29.85,SW,225,1.7,-999.0,96,-99.99,,,0.00,Acu-Link.com,2013-06-12 10:22:00,
2013-06-12 06:37:00,60.8,59.7,29.85,West,270,2.7,-999.0,96,-99.99,,,0.00,Acu-Link.com,2013-06-12 10:37:00,
2013-06-12 06:53:00,61.2,59.8,29.85,WNW,292,1.1,-999.0,95,-99.99,,,0.00,Acu-Link.com,2013-06-12 10:53:00,
2013-06-12 07:08:00,61.7,60.3,29.85,ESE,112,0.0,-999.0,95,-99.99,,,0.00,Acu-Link.com,2013-06-12 11:08:00,
2013-06-12 07:23:00,62.1,60.6,29.85,NNW,337,2.7,-999.0,95,-99.99,,,0.00,Acu-Link.com,2013-06-12 11:23:00,
2013-06-12 07:38:00,62.8,61.0,29.84,SSW,202,2.7,-999.0,94,-99.99,,,0.00,Acu-Link.com,2013-06-12 11:38:00,
2013-06-12 07:53:00,64.2,62.1,29.84,NE,45,4.2,-999.0,93,-99.99,,,0.00,Acu-Link.com,2013-06-12 11:53:00,
2013-06-12 08:08:00,65.8,63.4,29.85,NNE,22,4.2,-999.0,92,-99.99,,,0.00,Acu-Link.com,2013-06-12 12:08:00,
2013-06-12 08:23:00,68.7,65.0,29.85,ESE,112,2.7,-999.0,88,-99.99,,,0.00,Acu-Link.com,2013-06-12 12:23:00,
2013-06-12 08:39:00,69.8,65.4,29.85,NNE,22,5.3,-999.0,86,-99.99,,,0.00,Acu-Link.com,2013-06-12 12:39:00,
2013-06-12 08:54:00,71.2,66.5,29.85,NNE,22,4.7,-999.0,85,-99.99,,,0.00,Acu-Link.com,2013-06-12 12:54:00,
2013-06-12 09:09:00,70.0,65.9,29.85,North,0,3.7,-999.0,87,-99.99,,,0.00,Acu-Link.com,2013-06-12 13:09:00,
2013-06-12 09:24:00,70.3,66.2,29.85,SSE,157,4.2,-999.0,87,-99.99,,,0.00,Acu-Link.com,2013-06-12 13:24:00,
2013-06-12 09:39:00,69.4,65.7,29.85,NNW,337,1.7,-999.0,88,-99.99,,,0.00,Acu-Link.com,2013-06-12 13:39:00,
2013-06-12 09:54:00,68.9,65.5,29.84,West,270,2.7,-999.0,89,-99.99,,,0.00,Acu-Link.com,2013-06-12 13:54:00,
2013-06-12 10:09:00,68.7,65.6,29.84,SW,225,2.7,-999.0,90,-99.99,,,0.00,Acu-Link.com,2013-06-12 14:09:00,
2013-06-12 10:24:00,68.7,65.6,29.84,ESE,112,4.7,-999.0,90,-99.99,,,0.00,Acu-Link.com,2013-06-12 14:24:00,
2013-06-12 10:39:00,69.4,66.0,29.84,West,270,2.2,-999.0,89,-99.99,,,0.00,Acu-Link.com,2013-06-12 14:39:00,
2013-06-12 10:55:00,73.2,68.4,29.83,East,90,7.3,-999.0,85,-99.99,,,0.00,Acu-Link.com,2013-06-12 14:55:00,
2013-06-12 11:10:00,72.1,68.0,29.83,NNE,22,1.1,-999.0,87,-99.99,,,0.00,Acu-Link.com,2013-06-12 15:10:00,
2013-06-12 11:25:00,73.6,69.1,29.83,West,270,2.2,-999.0,86,-99.99,,,0.00,Acu-Link.com,2013-06-12 15:25:00,
2013-06-12 11:40:00,76.1,70.5,29.84,SSE,157,3.7,-999.0,83,-99.99,,,0.00,Acu-Link.com,2013-06-12 15:40:00,
2013-06-12 11:55:00,76.5,70.9,29.84,SSE,157,2.2,-999.0,83,-99.99,,,0.00,Acu-Link.com,2013-06-12 15:55:00,
2013-06-12 12:10:00,77.5,71.2,29.83,SE,135,3.2,-999.0,81,-99.99,,,0.00,Acu-Link.com,2013-06-12 16:10:00,
2013-06-12 12:25:00,77.5,71.6,29.83,NW,315,2.7,-999.0,82,-99.99,,,0.00,Acu-Link.com,2013-06-12 16:25:00,
2013-06-12 12:40:00,79.7,73.0,29.83,ESE,112,7.8,-999.0,80,-99.99,,,0.00,Acu-Link.com,2013-06-12 16:40:00,
2013-06-12 12:55:00,80.8,72.5,29.83,WNW,292,5.8,-999.0,76,-99.99,,,0.00,Acu-Link.com,2013-06-12 16:55:00,
2013-06-12 13:11:00,81.1,72.0,29.83,NW,315,7.3,-999.0,74,-99.99,,,0.00,Acu-Link.com,2013-06-12 17:11:00,
2013-06-12 13:26:00,82.8,71.6,29.81,SSW,202,4.2,-999.0,69,-99.99,,,0.00,Acu-Link.com,2013-06-12 17:26:00,
2013-06-12 13:41:00,82.0,71.2,29.83,SW,225,2.2,-999.0,70,-99.99,,,0.00,Acu-Link.com,2013-06-12 17:41:00,
2013-06-12 13:56:00,82.4,71.2,29.82,West,270,3.2,-999.0,69,-99.99,,,0.00,Acu-Link.com,2013-06-12 17:56:00,
2013-06-12 14:11:00,85.1,72.0,29.82,SE,135,4.7,-999.0,65,-99.99,,,0.00,Acu-Link.com,2013-06-12 18:11:00,
2013-06-12 14:26:00,81.5,71.6,29.82,NNW,337,2.2,-999.0,72,-99.99,,,0.00,Acu-Link.com,2013-06-12 18:26:00,
2013-06-12 14:41:00,85.5,71.4,29.82,East,90,2.7,-999.0,63,-99.99,,,0.00,Acu-Link.com,2013-06-12 18:41:00,
2013-06-12 14:56:00,82.9,70.8,29.80,WNW,292,3.2,-999.0,67,-99.99,,,0.00,Acu-Link.com,2013-06-12 18:56:00,
2013-06-12 15:11:00,85.8,71.7,29.80,ESE,112,2.2,-999.0,63,-99.99,,,0.00,Acu-Link.com,2013-06-12 19:11:00,
2013-06-12 15:27:00,85.1,71.5,29.82,SSW,202,4.7,-999.0,64,-99.99,,,0.00,Acu-Link.com,2013-06-12 19:27:00,
2013-06-12 15:42:00,86.0,72.4,29.81,SW,225,6.3,-999.0,64,-99.99,,,0.00,Acu-Link.com,2013-06-12 19:42:00,
2013-06-12 15:57:00,86.9,72.8,29.80,NE,45,6.8,-999.0,63,-99.99,,,0.00,Acu-Link.com,2013-06-12 19:57:00,
2013-06-12 16:12:00,87.3,73.1,29.82,ENE,67,6.3,-999.0,63,-99.99,,,0.00,Acu-Link.com,2013-06-12 20:12:00,
2013-06-12 16:27:00,87.1,71.0,29.81,SE,135,4.7,-999.0,59,-99.99,,,0.00,Acu-Link.com,2013-06-12 20:27:00,
2013-06-12 16:42:00,87.8,72.6,29.79,NE,45,2.7,-999.0,61,-99.99,,,0.00,Acu-Link.com,2013-06-12 20:42:00,
2013-06-12 16:57:00,87.3,71.2,29.79,NNE,22,2.7,-999.0,59,-99.99,,,0.00,Acu-Link.com,2013-06-12 20:57:00,
2013-06-12 17:12:00,86.4,70.8,29.79,NE,45,3.7,-999.0,60,-99.99,,,0.00,Acu-Link.com,2013-06-12 21:12:00,
2013-06-12 17:27:00,88.3,71.6,29.79,WSW,247,5.3,-999.0,58,-99.99,,,0.00,Acu-Link.com,2013-06-12 21:27:00,
2013-06-12 17:43:00,84.6,71.1,29.80,SW,225,2.2,-999.0,64,-99.99,,,0.00,Acu-Link.com,2013-06-12 21:43:00,
2013-06-12 17:58:00,87.8,71.7,29.79,West,270,1.1,-999.0,59,-99.99,,,0.00,Acu-Link.com,2013-06-12 21:58:00,
2013-06-12 18:13:00,86.2,71.6,29.79,NE,45,3.7,-999.0,62,-99.99,,,0.00,Acu-Link.com,2013-06-12 22:13:00,
2013-06-12 18:28:00,86.5,71.9,29.79,ESE,112,0.0,-999.0,62,-99.99,,,0.00,Acu-Link.com,2013-06-12 22:28:00,
2013-06-12 18:43:00,88.9,70.6,29.78,NNW,337,4.2,-999.0,55,-99.99,,,0.00,Acu-Link.com,2013-06-12 22:43:00,
2013-06-12 18:58:00,86.9,70.3,29.79,NNE,22,2.2,-999.0,58,-99.99,,,0.00,Acu-Link.com,2013-06-12 22:58:00,
2013-06-12 19:13:00,86.5,70.9,29.78,NNE,22,0.0,-999.0,60,-99.99,,,0.00,Acu-Link.com,2013-06-12 23:13:00,
2013-06-12 19:28:00,85.1,71.5,29.78,NW,315,0.0,-999.0,64,-99.99,,,0.00,Acu-Link.com,2013-06-12 23:28:00,
2013-06-12 19:43:00,82.6,70.9,29.78,SW,225,0.0,-999.0,68,-99.99,,,0.00,Acu-Link.com,2013-06-12 23:43:00,
2013-06-12 19:59:00,80.2,69.9,29.79,NW,315,0.0,-999.0,71,-99.99,,,0.00,Acu-Link.com,2013-06-12 23:59:00,
2013-06-12 20:14:00,78.4,69.4,29.78,SSW,202,0.0,-999.0,74,-99.99,,,0.00,Acu-Link.com,2013-06-13 00:14:00,
2013-06-12 20:29:00,77.0,70.0,29.79,East,90,0.0,-999.0,79,-99.99,,,0.00,Acu-Link.com,2013-06-13 00:29:00,
2013-06-12 20:44:00,76.1,68.4,29.78,SSE,157,0.0,-999.0,77,-99.99,,,0.00,Acu-Link.com,2013-06-13 00:44:00,
2013-06-12 20:59:00,74.3,67.4,29.78,NNE,22,0.0,-999.0,79,-99.99,,,0.00,Acu-Link.com,2013-06-13 00:59:00,
2013-06-12 21:14:00,73.4,67.6,29.78,South,180,0.0,-999.0,82,-99.99,,,0.00,Acu-Link.com,2013-06-13 01:14:00,
2013-06-12 21:29:00,72.7,66.9,29.78,SW,225,1.7,-999.0,82,-99.99,,,0.00,Acu-Link.com,2013-06-13 01:29:00,
2013-06-12 21:44:00,71.1,67.4,29.78,NNW,337,0.0,-999.0,88,-99.99,,,0.00,Acu-Link.com,2013-06-13 01:44:00,
2013-06-12 21:59:00,71.6,66.5,29.79,ESE,112,0.0,-999.0,84,-99.99,,,0.00,Acu-Link.com,2013-06-13 01:59:00,
2013-06-12 22:15:00,69.8,66.4,29.79,NE,45,0.0,-999.0,89,-99.99,,,0.00,Acu-Link.com,2013-06-13 02:15:00,
2013-06-12 22:30:00,69.4,66.0,29.80,NNE,22,0.0,-999.0,89,-99.99,,,0.00,Acu-Link.com,2013-06-13 02:30:00,
2013-06-12 22:45:00,70.7,66.0,29.79,SSE,157,1.1,-999.0,85,-99.99,,,0.00,Acu-Link.com,2013-06-13 02:45:00,
2013-06-12 23:00:00,72.1,66.3,29.80,NNW,337,2.7,-999.0,82,-99.99,,,0.00,Acu-Link.com,2013-06-13 03:00:00,
2013-06-12 23:15:00,73.0,66.5,29.78,WSW,247,1.7,-999.0,80,-99.99,,,0.00,Acu-Link.com,2013-06-13 03:15:00,
2013-06-12 23:30:00,73.6,67.4,29.78,SSE,157,0.0,-999.0,81,-99.99,,,0.00,Acu-Link.com,2013-06-13 03:30:00,
2013-06-12 23:45:00,73.9,67.7,29.77,SSW,202,3.2,-999.0,81,-99.99,,,0.00,Acu-Link.com,2013-06-13 03:45:00,